sensor_id;sensor_type;location;lat;lon;timestamp;P1;durP1;ratioP1;P2;durP2;ratioP2
43540;SDS011;29549;40.386;-3.710;2023-02-15T00:08:06;12.05;;;9.85;;
43540;SDS011;29549;40.386;-3.710;2023-02-15T00:18:08;11.77;;;9.68;;
43540;SDS011;29549;40.386;-3.710;2023-02-15T00:28:10;12.38;;;9.50;;
43540;SDS011;29549;40.386;-3.710;2023-02-15T00:38:12;10.77;;;8.68;;
43540;SDS011;29549;40.386;-3.710;2023-02-15T00:48:15;14.45;;;9.68;;
43540;SDS011;29549;40.386;-3.710;2023-02-15T00:58:16;11.15;;;9.48;;
43540;SDS011;29549;40.386;-3.710;2023-02-15T01:08:18;11.38;;;9.50;;
43540;SDS011;29549;40.386;-3.710;2023-02-15T01:18:21;10.90;;;8.75;;
43540;SDS011;29549;40.386;-3.710;2023-02-15T01:28:23;12.07;;;8.60;;
43540;SDS011;29549;40.386;-3.710;2023-02-15T01:38:24;13.65;;;8.73;;
43540;SDS011;29549;40.386;-3.710;2023-02-15T01:48:26;10.98;;;8.80;;
43540;SDS011;29549;40.386;-3.710;2023-02-15T01:58:28;12.23;;;8.27;;
43540;SDS011;29549;40.386;-3.710;2023-02-15T02:08:31;11.25;;;8.68;;
43540;SDS011;29549;40.386;-3.710;2023-02-15T02:39:13;14.27;;;9.63;;
43540;SDS011;29549;40.386;-3.710;2023-02-15T02:49:35;12.93;;;9.43;;
43540;SDS011;29549;40.386;-3.710;2023-02-15T02:59:41;14.43;;;11.05;;
43540;SDS011;29549;40.386;-3.710;2023-02-15T03:09:50;11.68;;;9.23;;
43540;SDS011;29549;40.386;-3.710;2023-02-15T03:19:55;14.00;;;9.05;;
43540;SDS011;29549;40.386;-3.710;2023-02-15T03:30:07;14.05;;;9.23;;
43540;SDS011;29549;40.386;-3.710;2023-02-15T03:50:54;11.48;;;8.73;;
43540;SDS011;29549;40.386;-3.710;2023-02-15T04:01:33;10.67;;;8.63;;
43540;SDS011;29549;40.386;-3.710;2023-02-15T04:12:04;11.45;;;9.23;;
43540;SDS011;29549;40.386;-3.710;2023-02-15T04:22:06;13.10;;;7.90;;
43540;SDS011;29549;40.386;-3.710;2023-02-15T04:32:28;9.57;;;8.27;;
43540;SDS011;29549;40.386;-3.710;2023-02-15T04:42:30;12.73;;;8.85;;
43540;SDS011;29549;40.386;-3.710;2023-02-15T04:52:32;13.07;;;8.85;;
43540;SDS011;29549;40.386;-3.710;2023-02-15T05:02:33;11.95;;;9.00;;
43540;SDS011;29549;40.386;-3.710;2023-02-15T05:12:35;12.48;;;9.73;;
43540;SDS011;29549;40.386;-3.710;2023-02-15T05:22:37;9.85;;;8.65;;
43540;SDS011;29549;40.386;-3.710;2023-02-15T05:32:39;14.52;;;9.52;;
43540;SDS011;29549;40.386;-3.710;2023-02-15T05:42:40;13.70;;;9.15;;
43540;SDS011;29549;40.386;-3.710;2023-02-15T05:52:42;12.32;;;8.93;;
43540;SDS011;29549;40.386;-3.710;2023-02-15T06:02:43;10.43;;;8.75;;
43540;SDS011;29549;40.386;-3.710;2023-02-15T06:12:45;12.95;;;9.18;;
43540;SDS011;29549;40.386;-3.710;2023-02-15T06:22:47;11.90;;;8.88;;
43540;SDS011;29549;40.386;-3.710;2023-02-15T06:32:49;11.20;;;8.98;;
43540;SDS011;29549;40.386;-3.710;2023-02-15T06:42:51;14.23;;;9.30;;
43540;SDS011;29549;40.386;-3.710;2023-02-15T06:52:56;11.38;;;9.07;;
43540;SDS011;29549;40.386;-3.710;2023-02-15T07:12:59;12.70;;;8.80;;
43540;SDS011;29549;40.386;-3.710;2023-02-15T07:23:02;12.05;;;8.68;;
43540;SDS011;29549;40.386;-3.710;2023-02-15T07:33:05;14.00;;;8.73;;
43540;SDS011;29549;40.386;-3.710;2023-02-15T07:43:25;11.88;;;9.02;;
43540;SDS011;29549;40.386;-3.710;2023-02-15T07:53:27;12.55;;;8.13;;
43540;SDS011;29549;40.386;-3.710;2023-02-15T08:03:29;10.60;;;7.65;;
43540;SDS011;29549;40.386;-3.710;2023-02-15T08:13:31;15.02;;;8.93;;
43540;SDS011;29549;40.386;-3.710;2023-02-15T08:23:32;13.93;;;9.25;;
43540;SDS011;29549;40.386;-3.710;2023-02-15T08:33:34;12.07;;;9.13;;
43540;SDS011;29549;40.386;-3.710;2023-02-15T08:43:37;13.60;;;8.82;;
43540;SDS011;29549;40.386;-3.710;2023-02-15T08:53:40;11.30;;;7.57;;
43540;SDS011;29549;40.386;-3.710;2023-02-15T09:03:43;12.18;;;7.68;;
43540;SDS011;29549;40.386;-3.710;2023-02-15T09:13:46;11.13;;;7.30;;
43540;SDS011;29549;40.386;-3.710;2023-02-15T09:23:48;7.78;;;5.32;;
43540;SDS011;29549;40.386;-3.710;2023-02-15T09:33:52;8.53;;;5.67;;
43540;SDS011;29549;40.386;-3.710;2023-02-15T09:44:01;8.60;;;5.90;;
43540;SDS011;29549;40.386;-3.710;2023-02-15T10:25:28;9.13;;;5.47;;
43540;SDS011;29549;40.386;-3.710;2023-02-15T10:35:47;11.82;;;6.45;;
43540;SDS011;29549;40.386;-3.710;2023-02-15T10:46:06;9.82;;;4.93;;
43540;SDS011;29549;40.386;-3.710;2023-02-15T11:06:35;16.03;;;6.60;;
43540;SDS011;29549;40.386;-3.710;2023-02-15T11:16:43;12.07;;;6.65;;
43540;SDS011;29549;40.386;-3.710;2023-02-15T11:26:54;13.85;;;7.68;;
43540;SDS011;29549;40.386;-3.710;2023-02-15T11:37:01;10.23;;;5.95;;
43540;SDS011;29549;40.386;-3.710;2023-02-15T11:47:11;15.93;;;8.00;;
43540;SDS011;29549;40.386;-3.710;2023-02-15T11:57:15;8.57;;;5.57;;
43540;SDS011;29549;40.386;-3.710;2023-02-15T12:07:42;10.23;;;5.95;;
43540;SDS011;29549;40.386;-3.710;2023-02-15T12:17:51;10.45;;;6.15;;
43540;SDS011;29549;40.386;-3.710;2023-02-15T12:27:55;11.40;;;6.43;;
43540;SDS011;29549;40.386;-3.710;2023-02-15T12:38:00;11.00;;;6.10;;
43540;SDS011;29549;40.386;-3.710;2023-02-15T12:48:23;9.75;;;6.28;;
43540;SDS011;29549;40.386;-3.710;2023-02-15T12:58:25;10.00;;;6.07;;
43540;SDS011;29549;40.386;-3.710;2023-02-15T13:08:30;10.53;;;6.77;;
43540;SDS011;29549;40.386;-3.710;2023-02-15T13:18:35;8.05;;;6.18;;
43540;SDS011;29549;40.386;-3.710;2023-02-15T13:28:42;11.30;;;6.53;;
43540;SDS011;29549;40.386;-3.710;2023-02-15T13:49:27;7.90;;;6.32;;
43540;SDS011;29549;40.386;-3.710;2023-02-15T14:30:46;11.75;;;5.88;;
43540;SDS011;29549;40.386;-3.710;2023-02-15T14:51:04;9.55;;;6.78;;
43540;SDS011;29549;40.386;-3.710;2023-02-15T15:01:09;9.63;;;6.10;;
43540;SDS011;29549;40.386;-3.710;2023-02-15T15:11:56;10.10;;;5.65;;
43540;SDS011;29549;40.386;-3.710;2023-02-15T15:31:52;10.80;;;6.80;;
43540;SDS011;29549;40.386;-3.710;2023-02-15T15:52:23;13.50;;;6.75;;
43540;SDS011;29549;40.386;-3.710;2023-02-15T16:02:27;9.32;;;5.57;;
43540;SDS011;29549;40.386;-3.710;2023-02-15T16:12:30;14.43;;;5.68;;
43540;SDS011;29549;40.386;-3.710;2023-02-15T16:22:34;7.35;;;4.75;;
43540;SDS011;29549;40.386;-3.710;2023-02-15T16:32:36;10.32;;;4.60;;
43540;SDS011;29549;40.386;-3.710;2023-02-15T16:42:39;9.93;;;5.72;;
43540;SDS011;29549;40.386;-3.710;2023-02-15T16:52:41;7.40;;;4.65;;
43540;SDS011;29549;40.386;-3.710;2023-02-15T17:02:55;8.30;;;4.50;;
43540;SDS011;29549;40.386;-3.710;2023-02-15T17:13:10;8.50;;;5.10;;
43540;SDS011;29549;40.386;-3.710;2023-02-15T17:23:40;17.30;;;5.57;;
43540;SDS011;29549;40.386;-3.710;2023-02-15T17:33:45;7.28;;;4.50;;
43540;SDS011;29549;40.386;-3.710;2023-02-15T17:43:47;12.70;;;4.80;;
43540;SDS011;29549;40.386;-3.710;2023-02-15T17:53:49;9.65;;;4.82;;
43540;SDS011;29549;40.386;-3.710;2023-02-15T18:04:12;9.82;;;5.13;;
43540;SDS011;29549;40.386;-3.710;2023-02-15T18:14:33;18.10;;;8.50;;
43540;SDS011;29549;40.386;-3.710;2023-02-15T18:24:35;9.27;;;5.70;;
43540;SDS011;29549;40.386;-3.710;2023-02-15T18:34:37;10.45;;;7.70;;
43540;SDS011;29549;40.386;-3.710;2023-02-15T18:44:41;21.95;;;10.15;;
43540;SDS011;29549;40.386;-3.710;2023-02-15T18:54:43;10.70;;;6.15;;
43540;SDS011;29549;40.386;-3.710;2023-02-15T19:04:45;14.45;;;5.88;;
43540;SDS011;29549;40.386;-3.710;2023-02-15T19:14:47;11.32;;;5.50;;
43540;SDS011;29549;40.386;-3.710;2023-02-15T19:24:50;10.52;;;5.10;;
43540;SDS011;29549;40.386;-3.710;2023-02-15T19:34:53;9.45;;;5.40;;
43540;SDS011;29549;40.386;-3.710;2023-02-15T19:44:55;12.57;;;6.43;;
43540;SDS011;29549;40.386;-3.710;2023-02-15T19:54:56;8.93;;;5.80;;
43540;SDS011;29549;40.386;-3.710;2023-02-15T20:04:58;11.63;;;6.00;;
43540;SDS011;29549;40.386;-3.710;2023-02-15T20:15:00;8.60;;;5.68;;
43540;SDS011;29549;40.386;-3.710;2023-02-15T20:25:02;12.43;;;5.70;;
43540;SDS011;29549;40.386;-3.710;2023-02-15T20:35:03;8.48;;;5.00;;
43540;SDS011;29549;40.386;-3.710;2023-02-15T20:55:31;10.90;;;5.68;;
43540;SDS011;29549;40.386;-3.710;2023-02-15T21:05:33;11.18;;;6.13;;
43540;SDS011;29549;40.386;-3.710;2023-02-15T21:15:36;13.18;;;8.25;;
43540;SDS011;29549;40.386;-3.710;2023-02-15T21:25:41;12.75;;;6.90;;
43540;SDS011;29549;40.386;-3.710;2023-02-15T21:35:43;11.27;;;5.97;;
43540;SDS011;29549;40.386;-3.710;2023-02-15T21:45:48;12.05;;;7.25;;
43540;SDS011;29549;40.386;-3.710;2023-02-15T21:56:09;14.35;;;8.02;;
43540;SDS011;29549;40.386;-3.710;2023-02-15T22:06:19;13.00;;;7.78;;
43540;SDS011;29549;40.386;-3.710;2023-02-15T22:16:21;15.65;;;9.05;;
43540;SDS011;29549;40.386;-3.710;2023-02-15T22:26:23;19.05;;;8.90;;
43540;SDS011;29549;40.386;-3.710;2023-02-15T22:36:26;15.20;;;9.13;;
43540;SDS011;29549;40.386;-3.710;2023-02-15T22:46:29;14.70;;;6.95;;
43540;SDS011;29549;40.386;-3.710;2023-02-15T22:56:33;18.63;;;10.07;;
43540;SDS011;29549;40.386;-3.710;2023-02-15T23:06:37;9.75;;;6.53;;
43540;SDS011;29549;40.386;-3.710;2023-02-15T23:16:39;12.20;;;6.90;;
43540;SDS011;29549;40.386;-3.710;2023-02-15T23:26:41;14.13;;;7.68;;
43540;SDS011;29549;40.386;-3.710;2023-02-15T23:36:43;11.70;;;7.05;;
43540;SDS011;29549;40.386;-3.710;2023-02-15T23:46:45;11.52;;;7.40;;
43540;SDS011;29549;40.386;-3.710;2023-02-15T23:56:50;13.00;;;7.18;;
